Terminal Aerodrome Forecast
Issued by NWS

Home | Current Version | Previous Version | Text Only | Print | Product List | Glossary On
Versions: 1 2 3 4 5 6 7 8 9 10 11 12 13 14 15 16 17 18 19 20 21
830
FTAK31 PAJN 142338
TAFAYA
TAF
PAYA 142338Z 1500/1524 11003KT P6SM -SHRA SCT025 BKN040 OVC060
      TEMPO 1500/1504 2SM -RA BR BKN009 OVC015
     FM150600 11003KT 6SM -SHRA SCT020 BKN030 OVC050
     FM151200 11003KT 3SM -SHRA BR SCT010 BKN015 OVC030
     FM151800 09003KT P6SM -SHRA SCT020 BKN030 OVC050
      AMD LTD TO CLD VIS AND WIND 1501/1509=

USA.gov is the U.S. government's official web portal to all federal, state and local government web resources and services.